createdAt,value
2019-05-03T00:02:29.010Z,10.18
2019-05-03T00:05:32.552Z,10.07
2019-05-03T00:08:21.759Z,9.96
2019-05-03T00:11:09.910Z,9.91
2019-05-03T00:13:57.035Z,9.95
2019-05-03T00:16:46.404Z,9.86
2019-05-03T00:19:34.177Z,9.85
2019-05-03T00:22:21.864Z,9.81
2019-05-03T00:25:08.977Z,9.82
2019-05-03T00:27:56.345Z,9.81
2019-05-03T00:30:44.142Z,9.74
2019-05-03T00:33:32.405Z,9.68
2019-05-03T00:36:32.847Z,9.67
2019-05-03T00:39:41.846Z,9.64
2019-05-03T00:42:29.408Z,9.74
2019-05-03T00:45:17.420Z,9.81
2019-05-03T00:48:05.401Z,9.83
2019-05-03T00:50:52.885Z,9.85
2019-05-03T00:53:42.269Z,9.87
2019-05-03T00:56:29.443Z,9.79
2019-05-03T00:59:17.427Z,9.90
2019-05-03T01:02:05.250Z,9.95
2019-05-03T01:04:53.081Z,9.83
2019-05-03T01:07:42.248Z,9.86
2019-05-03T01:10:29.663Z,9.90
2019-05-03T01:13:17.009Z,9.74
2019-05-03T01:16:09.088Z,9.86
2019-05-03T01:18:56.587Z,9.87
2019-05-03T01:21:43.728Z,9.79
2019-05-03T01:24:32.283Z,9.83
2019-05-03T01:27:21.818Z,9.86
2019-05-03T01:30:09.209Z,9.89
2019-05-03T01:32:57.253Z,9.74
2019-05-03T01:35:44.689Z,9.82
2019-05-03T01:38:32.136Z,9.77
2019-05-03T01:41:21.597Z,9.84
2019-05-03T01:44:08.912Z,9.75
2019-05-03T01:46:58.342Z,9.56
2019-05-03T01:49:55.429Z,9.51
2019-05-03T01:52:43.206Z,9.56
2019-05-03T01:55:48.191Z,9.75
2019-05-03T01:58:35.283Z,9.69
2019-05-03T02:01:42.251Z,9.70
2019-05-03T02:04:41.652Z,9.67
2019-05-03T02:07:29.085Z,9.41
2019-05-03T02:10:16.271Z,9.33
2019-05-03T02:13:05.073Z,9.23
2019-05-03T02:15:53.019Z,9.28
2019-05-03T02:18:42.384Z,9.36
2019-05-03T02:21:29.654Z,9.38
2019-05-03T02:24:16.897Z,9.35
2019-05-03T02:27:04.262Z,9.36
2019-05-03T02:29:52.441Z,9.44
2019-05-03T02:32:43.631Z,9.32
2019-05-03T02:35:29.918Z,9.42
2019-05-03T02:38:17.662Z,9.46
2019-05-03T02:41:05.417Z,9.52
2019-05-03T02:43:56.071Z,9.38
2019-05-03T02:47:08.058Z,9.31
2019-05-03T02:50:02.631Z,9.26
2019-05-03T02:52:50.266Z,9.17
2019-05-03T02:55:38.114Z,9.22
2019-05-03T02:58:25.555Z,9.21
2019-05-03T03:01:16.251Z,9.20
2019-05-03T03:04:05.241Z,9.11
2019-05-03T03:06:55.463Z,8.98
2019-05-03T03:09:41.733Z,9.01
2019-05-03T03:12:30.891Z,9.10
2019-05-03T03:15:18.857Z,9.12
2019-05-03T03:18:08.095Z,9.08
2019-05-03T03:20:56.981Z,9.03
2019-05-03T03:23:55.928Z,8.96
2019-05-03T03:26:44.463Z,8.88
2019-05-03T03:29:32.197Z,8.91
2019-05-03T03:32:39.198Z,8.76
2019-05-03T03:35:29.619Z,8.66
2019-05-03T03:38:17.574Z,8.70
2019-05-03T03:41:06.041Z,8.69
2019-05-03T03:43:55.789Z,8.81
2019-05-03T03:46:45.467Z,8.68
2019-05-03T03:49:35.606Z,8.69
2019-05-03T03:52:25.482Z,8.68
2019-05-03T03:55:15.635Z,8.74
2019-05-03T03:58:01.935Z,8.72
2019-05-03T04:00:49.142Z,8.71
2019-05-03T04:03:36.935Z,8.75
2019-05-03T04:06:40.880Z,8.63
2019-05-03T04:09:29.003Z,8.61
2019-05-03T04:12:16.802Z,8.56
2019-05-03T04:15:18.360Z,8.57
2019-05-03T04:18:16.841Z,8.47
2019-05-03T04:21:05.572Z,8.52
2019-05-03T04:23:55.676Z,8.63
2019-05-03T04:26:45.244Z,8.55
2019-05-03T04:29:31.783Z,8.58
2019-05-03T04:32:19.088Z,8.59
2019-05-03T04:35:06.896Z,8.63
2019-05-03T04:37:55.848Z,8.60
2019-05-03T04:40:45.364Z,8.42
2019-05-03T04:43:35.389Z,8.45
2019-05-03T04:46:25.826Z,8.41
2019-05-03T04:49:15.167Z,8.21
2019-05-03T04:52:05.817Z,8.40
2019-05-03T04:54:56.236Z,8.39
2019-05-03T04:57:46.792Z,8.53
2019-05-03T05:00:35.869Z,8.48
2019-05-03T05:03:23.079Z,8.53
2019-05-03T05:06:10.750Z,8.57
2019-05-03T05:08:57.784Z,8.47
2019-05-03T05:11:46.048Z,8.39
2019-05-03T05:14:35.252Z,8.52
2019-05-03T05:17:48.000Z,8.60
2019-05-03T05:20:58.794Z,8.75
2019-05-03T05:24:05.299Z,8.42
2019-05-03T05:26:58.500Z,8.75
2019-05-03T05:29:46.368Z,8.85
2019-05-03T05:32:35.061Z,8.75
2019-05-03T05:35:24.720Z,8.77
2019-05-03T05:38:12.284Z,8.68
2019-05-03T05:41:00.007Z,8.90
2019-05-03T05:43:47.311Z,8.80
2019-05-03T05:46:42.061Z,8.61
2019-05-03T05:49:57.822Z,8.65
2019-05-03T05:52:45.461Z,8.68
2019-05-03T05:55:50.974Z,8.55
2019-05-03T05:58:47.069Z,8.73
2019-05-03T06:01:38.243Z,8.71
2019-05-03T06:04:26.006Z,8.73
2019-05-03T06:07:30.523Z,8.63
2019-05-03T06:10:26.586Z,8.82
2019-05-03T06:13:17.977Z,8.87
2019-05-03T06:16:20.524Z,8.87
2019-05-03T06:19:29.664Z,8.90
2019-05-03T06:22:34.587Z,9.06
2019-05-03T06:25:27.623Z,9.17
2019-05-03T06:28:25.262Z,9.20
2019-05-03T06:31:24.834Z,9.23
2019-05-03T06:34:11.710Z,9.09
2019-05-03T06:37:04.361Z,9.20
2019-05-03T06:39:51.118Z,9.06
2019-05-03T06:42:51.253Z,9.21
2019-05-03T06:45:28.119Z,9.11
2019-05-03T06:48:17.776Z,9.13
2019-05-03T06:51:09.278Z,9.19
2019-05-03T06:53:54.743Z,9.11
2019-05-03T06:56:42.447Z,9.16
2019-05-03T06:59:35.889Z,9.38
2019-05-03T07:02:39.697Z,9.22
2019-05-03T07:05:48.823Z,9.33
2019-05-03T07:08:54.978Z,9.49
2019-05-03T07:11:42.375Z,9.54
2019-05-03T07:14:30.048Z,9.46
2019-05-03T07:17:17.458Z,9.51
2019-05-03T07:20:05.488Z,9.44
2019-05-03T07:22:55.545Z,9.47
2019-05-03T07:25:44.800Z,9.48
2019-05-03T07:28:44.435Z,9.55
2019-05-03T07:31:21.345Z,9.68
2019-05-03T07:34:09.813Z,9.70
2019-05-03T07:36:57.169Z,9.49
2019-05-03T07:39:45.294Z,9.59
2019-05-03T07:42:34.727Z,9.75
2019-05-03T07:45:22.670Z,9.92
2019-05-03T07:48:10.636Z,9.82
2019-05-03T07:50:58.116Z,9.73
2019-05-03T07:53:45.499Z,9.83
2019-05-03T07:56:40.810Z,9.78
2019-05-03T07:59:28.784Z,9.97
2019-05-03T08:02:17.147Z,9.98
2019-05-03T08:05:05.271Z,9.90
2019-05-03T08:07:52.785Z,9.98
2019-05-03T08:10:40.444Z,10.16
2019-05-03T08:13:28.004Z,10.40
2019-05-03T08:16:16.039Z,10.46
2019-05-03T08:19:05.024Z,10.50
2019-05-03T08:21:52.934Z,10.57
2019-05-03T08:24:40.604Z,10.80
2019-05-03T08:27:28.071Z,10.74
2019-05-03T08:30:20.210Z,10.81
2019-05-03T08:33:14.916Z,10.67
2019-05-03T08:36:02.353Z,10.65
2019-05-03T08:38:49.831Z,10.27
2019-05-03T08:41:39.083Z,10.28
2019-05-03T08:44:26.716Z,10.32
2019-05-03T08:47:15.519Z,10.04
2019-05-03T08:50:05.483Z,10.12
2019-05-03T08:52:52.283Z,10.15
2019-05-03T08:55:40.244Z,10.00
2019-05-03T08:58:27.668Z,10.01
2019-05-03T09:01:15.651Z,10.08
2019-05-03T09:04:04.985Z,9.98
2019-05-03T09:06:52.543Z,9.95
2019-05-03T09:09:55.146Z,10.04
2019-05-03T09:13:03.420Z,9.83
2019-05-03T09:15:50.804Z,10.04
2019-05-03T09:18:38.215Z,10.16
2019-05-03T09:21:25.678Z,10.29
2019-05-03T09:24:15.198Z,10.51
2019-05-03T09:27:04.964Z,10.73
2019-05-03T09:29:51.750Z,10.76
2019-05-03T09:32:39.734Z,10.41
2019-05-03T09:35:32.879Z,10.78
2019-05-03T09:38:16.725Z,11.02
2019-05-03T09:41:05.233Z,11.15
2019-05-03T09:43:55.255Z,11.25
2019-05-03T09:46:44.525Z,11.30
2019-05-03T09:49:31.567Z,11.53
2019-05-03T09:52:19.140Z,11.57
2019-05-03T09:55:09.501Z,11.74
2019-05-03T09:57:56.920Z,11.97
2019-05-03T10:00:44.993Z,11.99
2019-05-03T10:03:32.643Z,12.10
2019-05-03T10:06:20.042Z,12.41
2019-05-03T10:09:07.611Z,12.57
2019-05-03T10:11:55.321Z,12.86
2019-05-03T10:14:45.101Z,12.96
2019-05-03T10:17:51.312Z,12.99
2019-05-03T10:20:38.731Z,12.54
2019-05-03T10:23:55.044Z,12.96
2019-05-03T10:26:42.473Z,13.55
2019-05-03T10:29:29.972Z,13.95
2019-05-03T10:32:25.390Z,14.15
2019-05-03T10:35:15.126Z,13.84
2019-05-03T10:38:02.663Z,13.98
2019-05-03T10:40:50.278Z,13.90
2019-05-03T10:43:37.799Z,13.39
2019-05-03T10:46:25.195Z,13.23
2019-05-03T10:49:15.161Z,13.25
2019-05-03T10:52:05.680Z,13.35
2019-05-03T10:54:55.732Z,13.57
2019-05-03T10:57:46.256Z,13.80
2019-05-03T11:00:46.169Z,14.14
2019-05-03T11:03:23.313Z,14.33
2019-05-03T11:06:10.632Z,14.68
2019-05-03T11:08:59.845Z,14.69
2019-05-03T11:11:47.522Z,15.24
2019-05-03T11:14:35.170Z,15.27
2019-05-03T11:17:22.496Z,14.54
2019-05-03T11:20:11.091Z,13.87
2019-05-03T11:22:58.539Z,14.22
2019-05-03T11:25:46.367Z,14.08
2019-05-03T11:28:35.391Z,13.95
2019-05-03T11:31:40.876Z,13.84
2019-05-03T11:34:35.493Z,13.66
2019-05-03T11:37:39.525Z,13.73
2019-05-03T11:40:26.909Z,13.84
2019-05-03T11:43:15.262Z,13.51
2019-05-03T11:46:02.468Z,13.58
2019-05-03T11:48:50.159Z,13.64
2019-05-03T11:51:37.789Z,14.18
2019-05-03T11:54:25.205Z,14.09
2019-05-03T11:57:19.868Z,14.13
2019-05-03T12:00:11.330Z,13.90
2019-05-03T12:03:05.327Z,13.51
2019-05-03T12:05:55.301Z,13.33
2019-05-03T12:08:44.761Z,13.38
2019-05-03T12:11:33.741Z,13.55
2019-05-03T12:14:21.625Z,14.06
2019-05-03T12:17:18.816Z,13.85
2019-05-03T12:20:02.292Z,14.03
2019-05-03T12:22:51.062Z,14.15
2019-05-03T12:25:39.219Z,14.72
2019-05-03T12:28:27.600Z,14.62
2019-05-03T12:31:29.540Z,14.14
2019-05-03T12:34:06.010Z,14.26
2019-05-03T12:36:53.443Z,14.45
2019-05-03T12:39:40.581Z,14.48
2019-05-03T12:42:27.938Z,14.97
2019-05-03T12:45:15.649Z,15.13
2019-05-03T12:48:04.983Z,14.94
2019-05-03T12:50:52.928Z,15.37
2019-05-03T12:53:41.199Z,15.42
2019-05-03T12:56:32.784Z,15.43
2019-05-03T12:59:41.614Z,15.02
2019-05-03T13:02:45.440Z,14.93
2019-05-03T13:05:33.296Z,15.30
2019-05-03T13:08:42.333Z,14.95
2019-05-03T13:11:34.682Z,14.41
2019-05-03T13:14:21.051Z,14.44
2019-05-03T13:17:11.216Z,14.23
2019-05-03T13:19:57.883Z,14.14
2019-05-03T13:22:46.184Z,13.98
2019-05-03T13:25:35.542Z,13.31
2019-05-03T13:28:22.848Z,12.73
2019-05-03T13:31:10.432Z,12.43
2019-05-03T13:33:57.941Z,12.02
2019-05-03T13:36:45.740Z,11.54
2019-05-03T13:39:35.703Z,11.56
2019-05-03T13:42:22.584Z,11.12
2019-05-03T13:45:10.360Z,11.30
2019-05-03T13:47:57.815Z,10.88
2019-05-03T13:50:45.491Z,11.15
2019-05-03T13:53:34.769Z,11.14
2019-05-03T13:56:22.189Z,11.04
2019-05-03T13:59:18.773Z,11.13
2019-05-03T14:02:11.527Z,11.02
2019-05-03T14:04:52.451Z,11.08
2019-05-03T14:07:38.152Z,10.98
2019-05-03T14:10:25.905Z,11.04
2019-05-03T14:13:13.436Z,12.03
2019-05-03T14:16:00.543Z,12.11
2019-05-03T14:18:50.101Z,11.63
2019-05-03T14:21:45.155Z,11.32
2019-05-03T14:24:32.747Z,11.33
2019-05-03T14:27:20.525Z,11.40
2019-05-03T14:30:08.679Z,11.31
2019-05-03T14:32:56.459Z,11.20
2019-05-03T14:35:45.227Z,11.25
2019-05-03T14:38:32.980Z,11.31
2019-05-03T14:41:20.600Z,11.22
2019-05-03T14:44:08.423Z,11.20
2019-05-03T14:46:59.151Z,11.50
2019-05-03T14:49:45.535Z,11.38
2019-05-03T14:52:34.821Z,11.33
2019-05-03T14:55:38.103Z,11.39
2019-05-03T14:59:02.994Z,11.26
2019-05-03T15:01:58.295Z,10.69
2019-05-03T15:04:45.794Z,10.54
2019-05-03T15:07:35.161Z,10.64
2019-05-03T15:10:23.121Z,10.45
2019-05-03T15:13:10.248Z,10.45
2019-05-03T15:15:57.736Z,10.43
2019-05-03T15:18:45.764Z,10.81
2019-05-03T15:21:34.659Z,10.95
2019-05-03T15:24:22.059Z,11.09
2019-05-03T15:27:09.830Z,11.23
2019-05-03T15:29:56.965Z,10.99
2019-05-03T15:32:56.773Z,11.12
2019-05-03T15:35:35.086Z,11.18
2019-05-03T15:38:22.745Z,11.22
2019-05-03T15:41:10.631Z,11.34
2019-05-03T15:44:25.234Z,11.73
2019-05-03T15:47:18.210Z,11.80
2019-05-03T15:50:06.152Z,11.72
2019-05-03T15:52:55.028Z,11.39
2019-05-03T15:55:43.097Z,11.50
2019-05-03T15:58:30.498Z,11.81
2019-05-03T16:01:18.294Z,12.05
2019-05-03T16:04:06.092Z,12.00
2019-05-03T16:06:55.388Z,12.08
2019-05-03T16:09:44.526Z,11.82
2019-05-03T16:12:34.327Z,11.72
2019-05-03T16:15:21.455Z,11.90
2019-05-03T16:18:09.248Z,12.14
2019-05-03T16:20:56.923Z,12.39
2019-05-03T16:23:46.387Z,12.53
2019-05-03T16:26:33.330Z,12.35
2019-05-03T16:29:20.992Z,12.41
2019-05-03T16:32:09.721Z,12.23
2019-05-03T16:34:57.219Z,12.05
2019-05-03T16:37:45.248Z,12.11
2019-05-03T16:40:34.545Z,12.12
2019-05-03T16:43:22.632Z,12.21
2019-05-03T16:46:10.115Z,12.29
2019-05-03T16:48:58.309Z,12.47
2019-05-03T16:51:45.737Z,12.40
2019-05-03T16:54:34.830Z,12.36
2019-05-03T16:57:24.691Z,12.26
2019-05-03T17:00:12.434Z,12.15
2019-05-03T17:03:00.629Z,12.18
2019-05-03T17:06:14.801Z,12.21
2019-05-03T17:09:10.214Z,12.21
2019-05-03T17:12:25.910Z,11.98
2019-05-03T17:15:14.457Z,11.93
2019-05-03T17:18:02.500Z,11.96
2019-05-03T17:20:50.347Z,11.90
2019-05-03T17:23:37.928Z,12.00
2019-05-03T17:26:25.632Z,12.01
2019-05-03T17:29:13.437Z,11.82
2019-05-03T17:32:00.648Z,11.79
2019-05-03T17:34:48.532Z,11.83
2019-05-03T17:37:36.208Z,11.75
2019-05-03T17:40:39.554Z,11.65
2019-05-03T17:43:30.039Z,11.64
2019-05-03T17:46:17.779Z,11.47
2019-05-03T17:49:05.360Z,11.56
2019-05-03T17:52:11.876Z,11.65
2019-05-03T17:55:12.154Z,11.60
2019-05-03T17:58:04.528Z,11.57
2019-05-03T18:01:00.076Z,11.51
2019-05-03T18:03:49.030Z,11.37
2019-05-03T18:06:41.838Z,11.39
2019-05-03T18:09:34.582Z,11.35
2019-05-03T18:12:24.321Z,11.39
2019-05-03T18:15:11.310Z,11.36
2019-05-03T18:17:58.849Z,11.33
2019-05-03T18:20:47.378Z,11.15
2019-05-03T18:23:35.208Z,11.24
2019-05-03T18:26:22.498Z,11.17
2019-05-03T18:29:09.964Z,10.90
2019-05-03T18:31:57.622Z,11.09
2019-05-03T18:34:45.526Z,11.18
2019-05-03T18:37:35.538Z,11.16
2019-05-03T18:40:24.764Z,11.14
2019-05-03T18:43:18.198Z,11.07
2019-05-03T18:46:14.312Z,11.09
2019-05-03T18:49:02.236Z,11.03
2019-05-03T18:51:49.752Z,10.90
2019-05-03T18:54:37.392Z,10.81
2019-05-03T18:57:25.563Z,10.76
2019-05-03T19:00:15.330Z,10.64
2019-05-03T19:03:03.045Z,10.61
2019-05-03T19:05:54.685Z,10.55
2019-05-03T19:09:19.664Z,10.37
2019-05-03T19:12:23.062Z,10.19
2019-05-03T19:15:11.460Z,10.24
2019-05-03T19:18:12.531Z,10.17
2019-05-03T19:21:00.544Z,10.14
2019-05-03T19:23:48.266Z,10.08
2019-05-03T19:26:36.184Z,10.07
2019-05-03T19:29:25.037Z,9.90
2019-05-03T19:32:14.861Z,9.87
2019-05-03T19:35:02.527Z,9.85
2019-05-03T19:37:50.328Z,9.69
2019-05-03T19:40:37.815Z,9.72
2019-05-03T19:43:27.153Z,9.69
2019-05-03T19:46:16.479Z,9.64
2019-05-03T19:49:05.020Z,9.59
2019-05-03T19:51:54.529Z,9.76
2019-05-03T19:54:42.214Z,9.59
2019-05-03T19:57:35.122Z,9.64
2019-05-03T20:00:25.596Z,9.47
2019-05-03T20:03:17.312Z,9.47
2019-05-03T20:06:15.477Z,9.39
2019-05-03T20:09:09.085Z,9.44
2019-05-03T20:11:56.905Z,9.53
2019-05-03T20:14:45.086Z,9.61
2019-05-03T20:17:34.581Z,9.56
2019-05-03T20:20:22.255Z,9.61
2019-05-03T20:23:09.692Z,9.59
2019-05-03T20:25:57.240Z,9.63
2019-05-03T20:28:45.234Z,9.67
2019-05-03T20:31:32.637Z,9.66
2019-05-03T20:34:20.297Z,9.65
2019-05-03T20:37:07.776Z,9.56
2019-05-03T20:39:55.546Z,9.63
2019-05-03T20:42:54.266Z,9.69
2019-05-03T20:46:10.682Z,9.59
2019-05-03T20:49:01.246Z,9.66
2019-05-03T20:51:51.281Z,9.67
2019-05-03T20:54:38.169Z,9.75
2019-05-03T20:57:25.993Z,10.00
2019-05-03T21:00:15.935Z,9.92
2019-05-03T21:03:04.917Z,9.99
2019-05-03T21:05:52.794Z,10.08
2019-05-03T21:08:50.658Z,10.12
2019-05-03T21:11:29.738Z,9.94
2019-05-03T21:14:17.536Z,9.96
2019-05-03T21:17:14.959Z,9.92
2019-05-03T21:20:27.488Z,10.00
2019-05-03T21:23:16.138Z,10.09
2019-05-03T21:26:16.286Z,10.06
2019-05-03T21:29:01.959Z,10.11
2019-05-03T21:31:49.600Z,10.16
2019-05-03T21:34:36.901Z,10.12
2019-05-03T21:37:24.609Z,10.02
2019-05-03T21:40:12.163Z,9.96
2019-05-03T21:42:59.556Z,9.88
2019-05-03T21:45:51.475Z,9.81
2019-05-03T21:49:10.531Z,9.89
2019-05-03T21:51:58.204Z,9.97
2019-05-03T21:54:45.761Z,10.06
2019-05-03T21:57:34.471Z,9.90
2019-05-03T22:00:24.304Z,9.93
2019-05-03T22:03:11.855Z,9.81
2019-05-03T22:05:59.789Z,9.65
2019-05-03T22:08:47.215Z,9.21
2019-05-03T22:11:34.917Z,8.93
2019-05-03T22:14:35.078Z,8.79
2019-05-03T22:17:40.219Z,8.92
2019-05-03T22:20:35.058Z,8.87
2019-05-03T22:23:55.178Z,8.46
2019-05-03T22:26:51.737Z,8.47
2019-05-03T22:29:39.166Z,8.28
2019-05-03T22:32:27.108Z,8.38
2019-05-03T22:35:15.665Z,8.31
2019-05-03T22:38:06.283Z,8.38
2019-05-03T22:40:55.318Z,8.23
2019-05-03T22:43:42.743Z,8.44
2019-05-03T22:46:30.241Z,8.48
2019-05-03T22:49:17.799Z,8.31
2019-05-03T22:52:05.614Z,8.15
2019-05-03T22:54:55.354Z,8.20
2019-05-03T22:57:42.275Z,8.13
2019-05-03T23:00:29.785Z,8.19
2019-05-03T23:03:17.499Z,8.26
2019-05-03T23:06:05.194Z,8.17
2019-05-03T23:08:55.962Z,8.02
2019-05-03T23:11:44.577Z,8.15
2019-05-03T23:14:31.488Z,8.22
2019-05-03T23:17:18.780Z,8.23
2019-05-03T23:20:12.731Z,8.28
2019-05-03T23:23:00.045Z,8.36
2019-05-03T23:25:51.137Z,8.41
2019-05-03T23:28:38.538Z,8.36
2019-05-03T23:31:26.155Z,8.54
2019-05-03T23:34:13.823Z,8.41
2019-05-03T23:37:01.326Z,8.50
2019-05-03T23:39:48.638Z,8.55
2019-05-03T23:42:36.217Z,8.54
2019-05-03T23:45:25.509Z,8.70
2019-05-03T23:48:14.915Z,8.54
2019-05-03T23:51:01.996Z,8.61
2019-05-03T23:53:49.559Z,8.78
2019-05-03T23:56:36.815Z,8.68
2019-05-03T23:59:24.583Z,8.61
